sensor_id;sensor_type;location;lat;lon;timestamp;temperature;humidity
37594;DHT22;23441;50.856;6.076;2022-08-19T00:01:45;17.40;99.90
37594;DHT22;23441;50.856;6.076;2022-08-19T00:04:15;17.30;99.90
37594;DHT22;23441;50.856;6.076;2022-08-19T00:06:43;17.20;99.90
37594;DHT22;23441;50.856;6.076;2022-08-19T00:09:13;17.10;99.90
37594;DHT22;23441;50.856;6.076;2022-08-19T00:11:41;17.10;99.90
37594;DHT22;23441;50.856;6.076;2022-08-19T00:14:09;17.10;99.90
37594;DHT22;23441;50.856;6.076;2022-08-19T00:16:37;17.10;99.90
37594;DHT22;23441;50.856;6.076;2022-08-19T00:19:05;17.10;99.90
37594;DHT22;23441;50.856;6.076;2022-08-19T00:21:31;17.10;99.90
37594;DHT22;23441;50.856;6.076;2022-08-19T00:23:58;17.10;99.90
37594;DHT22;23441;50.856;6.076;2022-08-19T00:26:27;17.10;99.90
37594;DHT22;23441;50.856;6.076;2022-08-19T00:28:55;17.10;99.90
37594;DHT22;23441;50.856;6.076;2022-08-19T00:31:21;17.10;99.90
37594;DHT22;23441;50.856;6.076;2022-08-19T00:33:47;17.20;99.90
37594;DHT22;23441;50.856;6.076;2022-08-19T00:36:16;17.10;99.90
37594;DHT22;23441;50.856;6.076;2022-08-19T00:38:42;17.20;99.90
37594;DHT22;23441;50.856;6.076;2022-08-19T00:41:12;17.20;99.90
37594;DHT22;23441;50.856;6.076;2022-08-19T00:43:40;17.20;99.90
37594;DHT22;23441;50.856;6.076;2022-08-19T00:46:07;17.20;99.90
37594;DHT22;23441;50.856;6.076;2022-08-19T00:48:33;17.30;99.90
37594;DHT22;23441;50.856;6.076;2022-08-19T00:51:00;17.20;99.90
37594;DHT22;23441;50.856;6.076;2022-08-19T00:53:28;17.20;99.90
37594;DHT22;23441;50.856;6.076;2022-08-19T00:55:58;17.10;99.90
37594;DHT22;23441;50.856;6.076;2022-08-19T00:58:29;17.00;99.90
37594;DHT22;23441;50.856;6.076;2022-08-19T01:00:57;16.90;99.90
37594;DHT22;23441;50.856;6.076;2022-08-19T01:03:23;16.90;99.90
37594;DHT22;23441;50.856;6.076;2022-08-19T01:05:52;16.80;99.90
37594;DHT22;23441;50.856;6.076;2022-08-19T01:08:20;16.70;99.90
37594;DHT22;23441;50.856;6.076;2022-08-19T01:10:55;16.70;99.90
37594;DHT22;23441;50.856;6.076;2022-08-19T01:13:25;16.70;99.90
37594;DHT22;23441;50.856;6.076;2022-08-19T01:15:59;16.70;99.90
37594;DHT22;23441;50.856;6.076;2022-08-19T01:18:28;16.60;99.90
37594;DHT22;23441;50.856;6.076;2022-08-19T01:20:57;16.50;99.90
37594;DHT22;23441;50.856;6.076;2022-08-19T01:23:25;16.50;99.90
37594;DHT22;23441;50.856;6.076;2022-08-19T01:26:14;16.40;99.90
37594;DHT22;23441;50.856;6.076;2022-08-19T01:28:44;16.50;99.90
37594;DHT22;23441;50.856;6.076;2022-08-19T01:31:14;16.40;99.90
37594;DHT22;23441;50.856;6.076;2022-08-19T01:33:42;16.40;99.90
37594;DHT22;23441;50.856;6.076;2022-08-19T01:36:12;16.40;99.90
37594;DHT22;23441;50.856;6.076;2022-08-19T01:38:43;16.50;99.90
37594;DHT22;23441;50.856;6.076;2022-08-19T01:41:10;16.50;99.90
37594;DHT22;23441;50.856;6.076;2022-08-19T01:43:37;16.50;99.90
37594;DHT22;23441;50.856;6.076;2022-08-19T01:46:03;16.50;99.90
37594;DHT22;23441;50.856;6.076;2022-08-19T01:48:48;16.50;99.90
37594;DHT22;23441;50.856;6.076;2022-08-19T01:51:14;16.50;99.90
37594;DHT22;23441;50.856;6.076;2022-08-19T01:53:40;16.40;99.90
37594;DHT22;23441;50.856;6.076;2022-08-19T01:56:07;16.40;99.90
37594;DHT22;23441;50.856;6.076;2022-08-19T01:58:39;16.30;99.90
37594;DHT22;23441;50.856;6.076;2022-08-19T02:01:07;16.30;99.90
37594;DHT22;23441;50.856;6.076;2022-08-19T02:03:34;16.30;99.90
37594;DHT22;23441;50.856;6.076;2022-08-19T02:06:01;16.30;99.90
37594;DHT22;23441;50.856;6.076;2022-08-19T02:08:29;16.30;99.90
37594;DHT22;23441;50.856;6.076;2022-08-19T02:10:56;16.30;99.90
37594;DHT22;23441;50.856;6.076;2022-08-19T02:13:23;16.30;99.90
37594;DHT22;23441;50.856;6.076;2022-08-19T02:15:50;16.30;99.90
37594;DHT22;23441;50.856;6.076;2022-08-19T02:18:16;16.40;99.90
37594;DHT22;23441;50.856;6.076;2022-08-19T02:20:43;16.30;99.90
37594;DHT22;23441;50.856;6.076;2022-08-19T02:23:10;16.30;99.90
37594;DHT22;23441;50.856;6.076;2022-08-19T02:25:37;16.40;99.90
37594;DHT22;23441;50.856;6.076;2022-08-19T02:28:04;16.50;99.90
37594;DHT22;23441;50.856;6.076;2022-08-19T02:30:30;16.60;99.90
37594;DHT22;23441;50.856;6.076;2022-08-19T02:32:57;16.60;99.90
37594;DHT22;23441;50.856;6.076;2022-08-19T02:35:23;16.50;99.90
37594;DHT22;23441;50.856;6.076;2022-08-19T02:37:50;16.50;99.90
37594;DHT22;23441;50.856;6.076;2022-08-19T02:40:34;16.50;99.90
37594;DHT22;23441;50.856;6.076;2022-08-19T02:43:06;16.50;99.90
37594;DHT22;23441;50.856;6.076;2022-08-19T02:45:34;16.50;99.90
37594;DHT22;23441;50.856;6.076;2022-08-19T02:48:02;16.40;99.90
37594;DHT22;23441;50.856;6.076;2022-08-19T02:50:29;16.40;99.90
37594;DHT22;23441;50.856;6.076;2022-08-19T02:52:56;16.30;99.90
37594;DHT22;23441;50.856;6.076;2022-08-19T02:55:22;16.20;99.90
37594;DHT22;23441;50.856;6.076;2022-08-19T02:57:49;16.20;99.90
37594;DHT22;23441;50.856;6.076;2022-08-19T03:00:15;16.20;99.90
37594;DHT22;23441;50.856;6.076;2022-08-19T03:02:42;16.20;99.90
37594;DHT22;23441;50.856;6.076;2022-08-19T03:05:09;16.20;99.90
37594;DHT22;23441;50.856;6.076;2022-08-19T03:07:36;16.20;99.90
37594;DHT22;23441;50.856;6.076;2022-08-19T03:10:03;16.20;99.90
37594;DHT22;23441;50.856;6.076;2022-08-19T03:12:29;16.20;99.90
37594;DHT22;23441;50.856;6.076;2022-08-19T03:14:55;16.20;99.90
37594;DHT22;23441;50.856;6.076;2022-08-19T03:17:21;16.20;99.90
37594;DHT22;23441;50.856;6.076;2022-08-19T03:19:47;16.10;99.90
37594;DHT22;23441;50.856;6.076;2022-08-19T03:22:13;16.00;99.90
37594;DHT22;23441;50.856;6.076;2022-08-19T03:24:39;15.90;99.90
37594;DHT22;23441;50.856;6.076;2022-08-19T03:27:05;16.00;99.90
37594;DHT22;23441;50.856;6.076;2022-08-19T03:29:32;16.10;99.90
37594;DHT22;23441;50.856;6.076;2022-08-19T03:32:03;16.10;99.90
37594;DHT22;23441;50.856;6.076;2022-08-19T03:34:32;16.10;99.90
37594;DHT22;23441;50.856;6.076;2022-08-19T03:37:06;16.00;99.90
37594;DHT22;23441;50.856;6.076;2022-08-19T03:39:36;15.90;99.90
37594;DHT22;23441;50.856;6.076;2022-08-19T03:42:03;15.90;99.90
37594;DHT22;23441;50.856;6.076;2022-08-19T03:44:30;15.90;99.90
37594;DHT22;23441;50.856;6.076;2022-08-19T03:46:59;15.90;99.90
37594;DHT22;23441;50.856;6.076;2022-08-19T03:49:28;15.90;99.90
37594;DHT22;23441;50.856;6.076;2022-08-19T03:51:57;15.80;99.90
37594;DHT22;23441;50.856;6.076;2022-08-19T03:54:26;15.80;99.90
37594;DHT22;23441;50.856;6.076;2022-08-19T03:56:55;15.80;99.90
37594;DHT22;23441;50.856;6.076;2022-08-19T03:59:27;15.80;99.90
37594;DHT22;23441;50.856;6.076;2022-08-19T04:01:57;15.80;99.90
37594;DHT22;23441;50.856;6.076;2022-08-19T04:04:25;15.80;99.90
37594;DHT22;23441;50.856;6.076;2022-08-19T04:06:52;15.80;99.90
37594;DHT22;23441;50.856;6.076;2022-08-19T04:09:19;15.80;99.90
37594;DHT22;23441;50.856;6.076;2022-08-19T04:11:48;15.80;99.90
37594;DHT22;23441;50.856;6.076;2022-08-19T04:14:25;15.80;99.90
37594;DHT22;23441;50.856;6.076;2022-08-19T04:16:54;15.80;99.90
37594;DHT22;23441;50.856;6.076;2022-08-19T04:19:20;15.80;99.90
37594;DHT22;23441;50.856;6.076;2022-08-19T04:21:50;15.80;99.90
37594;DHT22;23441;50.856;6.076;2022-08-19T04:24:18;15.80;99.90
37594;DHT22;23441;50.856;6.076;2022-08-19T04:26:44;15.80;99.90
37594;DHT22;23441;50.856;6.076;2022-08-19T04:29:17;15.90;99.90
37594;DHT22;23441;50.856;6.076;2022-08-19T04:31:48;15.90;99.90
37594;DHT22;23441;50.856;6.076;2022-08-19T04:34:16;15.90;99.90
37594;DHT22;23441;50.856;6.076;2022-08-19T04:36:44;15.90;99.90
37594;DHT22;23441;50.856;6.076;2022-08-19T04:39:13;15.90;99.90
37594;DHT22;23441;50.856;6.076;2022-08-19T04:41:41;15.90;99.90
37594;DHT22;23441;50.856;6.076;2022-08-19T04:44:25;15.90;99.90
37594;DHT22;23441;50.856;6.076;2022-08-19T04:46:52;16.00;99.90
37594;DHT22;23441;50.856;6.076;2022-08-19T04:49:20;16.00;99.90
37594;DHT22;23441;50.856;6.076;2022-08-19T04:51:52;16.00;99.90
37594;DHT22;23441;50.856;6.076;2022-08-19T04:54:21;16.10;99.90
37594;DHT22;23441;50.856;6.076;2022-08-19T04:56:53;16.00;99.90
37594;DHT22;23441;50.856;6.076;2022-08-19T04:59:20;16.10;99.90
37594;DHT22;23441;50.856;6.076;2022-08-19T05:01:48;16.20;99.90
37594;DHT22;23441;50.856;6.076;2022-08-19T05:04:19;16.20;99.90
37594;DHT22;23441;50.856;6.076;2022-08-19T05:06:47;16.20;99.90
37594;DHT22;23441;50.856;6.076;2022-08-19T05:09:15;16.20;99.90
37594;DHT22;23441;50.856;6.076;2022-08-19T05:11:42;16.20;99.90
37594;DHT22;23441;50.856;6.076;2022-08-19T05:14:09;16.20;99.90
37594;DHT22;23441;50.856;6.076;2022-08-19T05:16:38;16.10;99.90
37594;DHT22;23441;50.856;6.076;2022-08-19T05:19:05;16.20;99.90
37594;DHT22;23441;50.856;6.076;2022-08-19T05:21:49;16.20;99.90
37594;DHT22;23441;50.856;6.076;2022-08-19T05:24:34;16.30;99.90
37594;DHT22;23441;50.856;6.076;2022-08-19T05:27:01;16.30;99.90
37594;DHT22;23441;50.856;6.076;2022-08-19T05:29:29;16.30;99.90
37594;DHT22;23441;50.856;6.076;2022-08-19T05:31:58;16.30;99.90
37594;DHT22;23441;50.856;6.076;2022-08-19T05:34:26;16.30;99.90
37594;DHT22;23441;50.856;6.076;2022-08-19T05:36:55;16.30;99.90
37594;DHT22;23441;50.856;6.076;2022-08-19T05:39:25;16.30;99.90
37594;DHT22;23441;50.856;6.076;2022-08-19T05:42:00;16.40;99.90
37594;DHT22;23441;50.856;6.076;2022-08-19T05:44:31;16.50;99.90
37594;DHT22;23441;50.856;6.076;2022-08-19T05:47:00;16.50;99.90
37594;DHT22;23441;50.856;6.076;2022-08-19T05:49:30;16.60;99.90
37594;DHT22;23441;50.856;6.076;2022-08-19T05:51:57;16.70;99.90
37594;DHT22;23441;50.856;6.076;2022-08-19T05:54:25;16.90;99.90
37594;DHT22;23441;50.856;6.076;2022-08-19T05:56:52;16.90;99.90
37594;DHT22;23441;50.856;6.076;2022-08-19T05:59:20;17.00;99.90
37594;DHT22;23441;50.856;6.076;2022-08-19T06:01:49;17.10;99.90
37594;DHT22;23441;50.856;6.076;2022-08-19T06:04:17;17.10;99.90
37594;DHT22;23441;50.856;6.076;2022-08-19T06:06:48;17.10;99.90
37594;DHT22;23441;50.856;6.076;2022-08-19T06:09:17;17.00;99.90
37594;DHT22;23441;50.856;6.076;2022-08-19T06:11:55;17.10;99.90
37594;DHT22;23441;50.856;6.076;2022-08-19T06:14:27;17.10;99.90
37594;DHT22;23441;50.856;6.076;2022-08-19T06:16:55;17.10;99.90
37594;DHT22;23441;50.856;6.076;2022-08-19T06:19:22;17.10;99.90
37594;DHT22;23441;50.856;6.076;2022-08-19T06:21:51;17.20;99.90
37594;DHT22;23441;50.856;6.076;2022-08-19T06:24:23;17.20;99.90
37594;DHT22;23441;50.856;6.076;2022-08-19T06:26:53;17.30;99.90
37594;DHT22;23441;50.856;6.076;2022-08-19T06:29:24;17.30;99.90
37594;DHT22;23441;50.856;6.076;2022-08-19T06:31:53;17.40;99.90
37594;DHT22;23441;50.856;6.076;2022-08-19T06:34:21;17.60;99.90
37594;DHT22;23441;50.856;6.076;2022-08-19T06:36:50;17.70;99.90
37594;DHT22;23441;50.856;6.076;2022-08-19T06:39:23;17.80;99.90
37594;DHT22;23441;50.856;6.076;2022-08-19T06:41:55;17.80;99.90
37594;DHT22;23441;50.856;6.076;2022-08-19T06:44:26;17.90;99.90
37594;DHT22;23441;50.856;6.076;2022-08-19T06:46:54;18.10;99.90
37594;DHT22;23441;50.856;6.076;2022-08-19T06:49:22;18.70;99.90
37594;DHT22;23441;50.856;6.076;2022-08-19T06:51:49;19.20;99.90
37594;DHT22;23441;50.856;6.076;2022-08-19T06:54:17;19.70;99.90
37594;DHT22;23441;50.856;6.076;2022-08-19T06:56:44;19.70;99.90
37594;DHT22;23441;50.856;6.076;2022-08-19T06:59:16;19.60;99.90
37594;DHT22;23441;50.856;6.076;2022-08-19T07:01:51;19.50;99.90
37594;DHT22;23441;50.856;6.076;2022-08-19T07:04:22;19.30;99.90
37594;DHT22;23441;50.856;6.076;2022-08-19T07:06:57;19.20;99.90
37594;DHT22;23441;50.856;6.076;2022-08-19T07:09:25;19.20;99.90
37594;DHT22;23441;50.856;6.076;2022-08-19T07:11:53;19.30;99.90
37594;DHT22;23441;50.856;6.076;2022-08-19T07:14:23;19.40;99.90
37594;DHT22;23441;50.856;6.076;2022-08-19T07:16:53;19.30;99.90
37594;DHT22;23441;50.856;6.076;2022-08-19T07:19:23;19.40;99.90
37594;DHT22;23441;50.856;6.076;2022-08-19T07:21:51;19.50;99.90
37594;DHT22;23441;50.856;6.076;2022-08-19T07:24:22;19.60;99.90
37594;DHT22;23441;50.856;6.076;2022-08-19T07:26:51;19.90;99.90
37594;DHT22;23441;50.856;6.076;2022-08-19T07:29:20;20.00;99.90
37594;DHT22;23441;50.856;6.076;2022-08-19T07:31:50;20.00;99.90
37594;DHT22;23441;50.856;6.076;2022-08-19T07:34:17;19.90;99.90
37594;DHT22;23441;50.856;6.076;2022-08-19T07:36:44;19.80;99.90
37594;DHT22;23441;50.856;6.076;2022-08-19T07:39:14;19.70;99.90
37594;DHT22;23441;50.856;6.076;2022-08-19T07:41:45;19.70;99.90
37594;DHT22;23441;50.856;6.076;2022-08-19T07:44:13;19.70;99.90
37594;DHT22;23441;50.856;6.076;2022-08-19T07:46:43;19.70;99.90
37594;DHT22;23441;50.856;6.076;2022-08-19T07:49:11;20.10;99.90
37594;DHT22;23441;50.856;6.076;2022-08-19T07:51:44;20.10;99.90
37594;DHT22;23441;50.856;6.076;2022-08-19T07:54:11;20.00;99.90
37594;DHT22;23441;50.856;6.076;2022-08-19T07:56:38;20.00;99.90
37594;DHT22;23441;50.856;6.076;2022-08-19T07:59:04;20.00;99.90
37594;DHT22;23441;50.856;6.076;2022-08-19T08:01:30;20.10;99.90
37594;DHT22;23441;50.856;6.076;2022-08-19T08:03:57;20.30;99.90
37594;DHT22;23441;50.856;6.076;2022-08-19T08:06:43;20.30;99.90
37594;DHT22;23441;50.856;6.076;2022-08-19T08:09:34;20.50;99.90
37594;DHT22;23441;50.856;6.076;2022-08-19T08:12:08;20.50;99.90
37594;DHT22;23441;50.856;6.076;2022-08-19T08:14:45;20.50;99.90
37594;DHT22;23441;50.856;6.076;2022-08-19T08:17:15;20.60;99.90
37594;DHT22;23441;50.856;6.076;2022-08-19T08:19:43;20.60;99.90
37594;DHT22;23441;50.856;6.076;2022-08-19T08:22:11;20.60;99.90
37594;DHT22;23441;50.856;6.076;2022-08-19T08:25:12;20.60;99.90
37594;DHT22;23441;50.856;6.076;2022-08-19T08:27:42;20.70;99.90
37594;DHT22;23441;50.856;6.076;2022-08-19T08:30:15;20.70;99.90
37594;DHT22;23441;50.856;6.076;2022-08-19T08:32:45;20.70;99.90
37594;DHT22;23441;50.856;6.076;2022-08-19T08:35:15;20.60;99.90
37594;DHT22;23441;50.856;6.076;2022-08-19T08:37:44;20.40;99.90
37594;DHT22;23441;50.856;6.076;2022-08-19T08:40:26;20.40;99.90
37594;DHT22;23441;50.856;6.076;2022-08-19T08:43:08;20.30;99.90
37594;DHT22;23441;50.856;6.076;2022-08-19T08:46:29;20.10;99.90
37594;DHT22;23441;50.856;6.076;2022-08-19T08:49:49;20.30;99.90
37594;DHT22;23441;50.856;6.076;2022-08-19T08:52:32;20.40;99.90
37594;DHT22;23441;50.856;6.076;2022-08-19T08:55:10;20.50;99.90
37594;DHT22;23441;50.856;6.076;2022-08-19T08:57:50;20.60;99.90
37594;DHT22;23441;50.856;6.076;2022-08-19T09:02:55;21.10;99.90
37594;DHT22;23441;50.856;6.076;2022-08-19T09:05:26;21.60;99.90
37594;DHT22;23441;50.856;6.076;2022-08-19T09:17:08;23.10;99.90
37594;DHT22;23441;50.856;6.076;2022-08-19T09:19:36;23.10;99.90
37594;DHT22;23441;50.856;6.076;2022-08-19T09:22:14;23.30;99.90
37594;DHT22;23441;50.856;6.076;2022-08-19T09:24:41;23.20;99.90
37594;DHT22;23441;50.856;6.076;2022-08-19T09:27:07;23.30;99.90
37594;DHT22;23441;50.856;6.076;2022-08-19T09:29:33;23.20;99.90
37594;DHT22;23441;50.856;6.076;2022-08-19T09:31:59;23.10;99.90
37594;DHT22;23441;50.856;6.076;2022-08-19T09:34:24;23.30;99.90
37594;DHT22;23441;50.856;6.076;2022-08-19T09:36:51;23.20;99.90
37594;DHT22;23441;50.856;6.076;2022-08-19T09:39:18;23.10;99.90
37594;DHT22;23441;50.856;6.076;2022-08-19T09:41:45;22.80;99.90
37594;DHT22;23441;50.856;6.076;2022-08-19T09:44:11;22.90;99.90
37594;DHT22;23441;50.856;6.076;2022-08-19T09:46:38;23.00;99.90
37594;DHT22;23441;50.856;6.076;2022-08-19T09:49:03;23.20;99.90
37594;DHT22;23441;50.856;6.076;2022-08-19T09:51:32;23.20;99.90
37594;DHT22;23441;50.856;6.076;2022-08-19T09:54:03;23.40;99.90
37594;DHT22;23441;50.856;6.076;2022-08-19T09:56:31;23.60;99.90
37594;DHT22;23441;50.856;6.076;2022-08-19T09:59:02;23.50;99.90
37594;DHT22;23441;50.856;6.076;2022-08-19T10:01:30;23.50;99.90
37594;DHT22;23441;50.856;6.076;2022-08-19T10:03:59;23.60;99.90
37594;DHT22;23441;50.856;6.076;2022-08-19T10:06:27;23.70;99.90
37594;DHT22;23441;50.856;6.076;2022-08-19T10:08:58;23.40;99.90
37594;DHT22;23441;50.856;6.076;2022-08-19T10:11:24;23.50;99.90
37594;DHT22;23441;50.856;6.076;2022-08-19T10:13:52;23.30;99.90
37594;DHT22;23441;50.856;6.076;2022-08-19T10:16:20;23.10;99.90
37594;DHT22;23441;50.856;6.076;2022-08-19T10:18:50;23.10;99.90
37594;DHT22;23441;50.856;6.076;2022-08-19T10:21:29;23.30;99.90
37594;DHT22;23441;50.856;6.076;2022-08-19T10:23:59;23.40;99.90
37594;DHT22;23441;50.856;6.076;2022-08-19T10:26:30;23.40;99.90
37594;DHT22;23441;50.856;6.076;2022-08-19T10:28:59;23.10;99.90
37594;DHT22;23441;50.856;6.076;2022-08-19T10:31:29;23.30;99.90
37594;DHT22;23441;50.856;6.076;2022-08-19T10:33:56;23.10;99.90
37594;DHT22;23441;50.856;6.076;2022-08-19T10:36:32;23.00;99.90
37594;DHT22;23441;50.856;6.076;2022-08-19T10:39:04;22.80;99.90
37594;DHT22;23441;50.856;6.076;2022-08-19T10:41:35;22.80;99.90
37594;DHT22;23441;50.856;6.076;2022-08-19T10:44:08;22.90;99.90
37594;DHT22;23441;50.856;6.076;2022-08-19T10:46:40;23.10;99.90
37594;DHT22;23441;50.856;6.076;2022-08-19T10:49:09;23.30;99.90
37594;DHT22;23441;50.856;6.076;2022-08-19T10:51:38;23.60;99.90
37594;DHT22;23441;50.856;6.076;2022-08-19T10:54:24;23.80;99.90
37594;DHT22;23441;50.856;6.076;2022-08-19T10:57:10;23.30;99.90
37594;DHT22;23441;50.856;6.076;2022-08-19T10:59:36;23.20;99.90
37594;DHT22;23441;50.856;6.076;2022-08-19T11:02:06;23.40;99.90
37594;DHT22;23441;50.856;6.076;2022-08-19T11:04:38;23.60;99.90
37594;DHT22;23441;50.856;6.076;2022-08-19T11:07:06;23.50;99.90
37594;DHT22;23441;50.856;6.076;2022-08-19T11:09:41;23.40;99.90
37594;DHT22;23441;50.856;6.076;2022-08-19T11:12:08;23.00;99.90
37594;DHT22;23441;50.856;6.076;2022-08-19T11:14:35;23.10;99.90
37594;DHT22;23441;50.856;6.076;2022-08-19T11:17:03;23.30;99.90
37594;DHT22;23441;50.856;6.076;2022-08-19T11:19:30;23.50;99.90
37594;DHT22;23441;50.856;6.076;2022-08-19T11:21:57;23.30;99.90
37594;DHT22;23441;50.856;6.076;2022-08-19T11:24:29;23.30;99.90
37594;DHT22;23441;50.856;6.076;2022-08-19T11:27:05;23.30;99.90
37594;DHT22;23441;50.856;6.076;2022-08-19T11:29:33;23.20;99.90
37594;DHT22;23441;50.856;6.076;2022-08-19T11:32:02;23.20;99.90
37594;DHT22;23441;50.856;6.076;2022-08-19T11:34:34;23.20;99.90
37594;DHT22;23441;50.856;6.076;2022-08-19T11:37:02;23.30;99.90
37594;DHT22;23441;50.856;6.076;2022-08-19T11:39:30;23.90;99.90
37594;DHT22;23441;50.856;6.076;2022-08-19T11:42:00;24.40;99.90
37594;DHT22;23441;50.856;6.076;2022-08-19T11:44:28;24.30;99.90
37594;DHT22;23441;50.856;6.076;2022-08-19T11:46:56;23.90;99.90
37594;DHT22;23441;50.856;6.076;2022-08-19T11:49:22;23.90;99.90
37594;DHT22;23441;50.856;6.076;2022-08-19T11:51:48;23.70;99.90
37594;DHT22;23441;50.856;6.076;2022-08-19T11:54:16;24.00;99.90
37594;DHT22;23441;50.856;6.076;2022-08-19T11:56:43;24.20;99.90
37594;DHT22;23441;50.856;6.076;2022-08-19T11:59:09;24.20;99.90
37594;DHT22;23441;50.856;6.076;2022-08-19T12:01:36;24.60;99.90
37594;DHT22;23441;50.856;6.076;2022-08-19T12:04:03;24.80;99.90
37594;DHT22;23441;50.856;6.076;2022-08-19T12:06:31;24.70;99.90
37594;DHT22;23441;50.856;6.076;2022-08-19T12:09:02;24.80;99.90
37594;DHT22;23441;50.856;6.076;2022-08-19T12:11:30;25.30;99.90
37594;DHT22;23441;50.856;6.076;2022-08-19T12:13:56;25.70;99.90
37594;DHT22;23441;50.856;6.076;2022-08-19T12:16:25;25.70;99.90
37594;DHT22;23441;50.856;6.076;2022-08-19T12:18:53;25.20;99.90
37594;DHT22;23441;50.856;6.076;2022-08-19T12:21:23;25.20;99.90
37594;DHT22;23441;50.856;6.076;2022-08-19T12:23:54;25.30;99.90
37594;DHT22;23441;50.856;6.076;2022-08-19T12:26:21;25.60;99.50
37594;DHT22;23441;50.856;6.076;2022-08-19T12:28:47;25.80;97.90
37594;DHT22;23441;50.856;6.076;2022-08-19T12:31:16;25.90;98.90
37594;DHT22;23441;50.856;6.076;2022-08-19T12:33:42;26.00;96.40
37594;DHT22;23441;50.856;6.076;2022-08-19T12:36:10;26.10;96.90
37594;DHT22;23441;50.856;6.076;2022-08-19T12:38:38;26.50;96.80
37594;DHT22;23441;50.856;6.076;2022-08-19T12:41:06;26.70;96.40
37594;DHT22;23441;50.856;6.076;2022-08-19T12:43:36;26.50;96.40
37594;DHT22;23441;50.856;6.076;2022-08-19T12:46:04;26.50;96.10
37594;DHT22;23441;50.856;6.076;2022-08-19T12:48:32;26.60;95.50
37594;DHT22;23441;50.856;6.076;2022-08-19T12:50:59;26.80;96.00
37594;DHT22;23441;50.856;6.076;2022-08-19T12:53:25;26.50;96.40
37594;DHT22;23441;50.856;6.076;2022-08-19T12:55:58;26.40;96.70
37594;DHT22;23441;50.856;6.076;2022-08-19T12:58:26;26.60;96.50
37594;DHT22;23441;50.856;6.076;2022-08-19T13:00:52;26.60;95.70
37594;DHT22;23441;50.856;6.076;2022-08-19T13:03:19;26.90;96.20
37594;DHT22;23441;50.856;6.076;2022-08-19T13:05:45;26.70;95.80
37594;DHT22;23441;50.856;6.076;2022-08-19T13:08:11;27.00;98.80
37594;DHT22;23441;50.856;6.076;2022-08-19T13:10:37;27.50;97.20
37594;DHT22;23441;50.856;6.076;2022-08-19T13:13:06;27.40;95.70
37594;DHT22;23441;50.856;6.076;2022-08-19T13:15:35;27.30;95.80
37594;DHT22;23441;50.856;6.076;2022-08-19T13:18:05;26.80;96.40
37594;DHT22;23441;50.856;6.076;2022-08-19T13:20:31;26.90;97.70
37594;DHT22;23441;50.856;6.076;2022-08-19T13:22:57;27.20;96.70
37594;DHT22;23441;50.856;6.076;2022-08-19T13:25:24;27.10;95.70
37594;DHT22;23441;50.856;6.076;2022-08-19T13:27:51;26.50;98.50
37594;DHT22;23441;50.856;6.076;2022-08-19T13:30:19;26.30;97.80
37594;DHT22;23441;50.856;6.076;2022-08-19T13:33:04;26.00;97.30
37594;DHT22;23441;50.856;6.076;2022-08-19T13:36:00;25.90;98.30
37594;DHT22;23441;50.856;6.076;2022-08-19T13:38:27;26.00;98.80
37594;DHT22;23441;50.856;6.076;2022-08-19T13:40:55;26.20;99.90
37594;DHT22;23441;50.856;6.076;2022-08-19T13:43:25;26.00;99.20
37594;DHT22;23441;50.856;6.076;2022-08-19T13:45:54;25.80;99.20
37594;DHT22;23441;50.856;6.076;2022-08-19T13:48:21;25.60;99.90
37594;DHT22;23441;50.856;6.076;2022-08-19T13:50:49;25.50;99.90
37594;DHT22;23441;50.856;6.076;2022-08-19T13:53:16;25.30;99.90
37594;DHT22;23441;50.856;6.076;2022-08-19T13:55:43;25.20;99.90
37594;DHT22;23441;50.856;6.076;2022-08-19T13:58:10;25.20;99.90
37594;DHT22;23441;50.856;6.076;2022-08-19T14:00:41;25.30;99.90
37594;DHT22;23441;50.856;6.076;2022-08-19T14:03:08;25.40;99.90
37594;DHT22;23441;50.856;6.076;2022-08-19T14:05:35;25.50;99.90
37594;DHT22;23441;50.856;6.076;2022-08-19T14:08:01;25.30;99.90
37594;DHT22;23441;50.856;6.076;2022-08-19T14:10:27;25.30;99.90
37594;DHT22;23441;50.856;6.076;2022-08-19T14:12:58;25.30;99.90
37594;DHT22;23441;50.856;6.076;2022-08-19T14:15:25;25.40;99.90
37594;DHT22;23441;50.856;6.076;2022-08-19T14:17:53;25.20;99.90
37594;DHT22;23441;50.856;6.076;2022-08-19T14:20:20;25.30;99.90
37594;DHT22;23441;50.856;6.076;2022-08-19T14:22:46;25.50;99.90
37594;DHT22;23441;50.856;6.076;2022-08-19T14:25:18;25.50;99.90
37594;DHT22;23441;50.856;6.076;2022-08-19T14:27:46;25.30;99.90
37594;DHT22;23441;50.856;6.076;2022-08-19T14:30:16;25.10;99.90
37594;DHT22;23441;50.856;6.076;2022-08-19T14:32:44;25.30;99.90
37594;DHT22;23441;50.856;6.076;2022-08-19T14:35:12;25.30;99.90
37594;DHT22;23441;50.856;6.076;2022-08-19T14:37:41;25.20;99.90
37594;DHT22;23441;50.856;6.076;2022-08-19T14:40:08;25.20;99.90
37594;DHT22;23441;50.856;6.076;2022-08-19T14:42:35;25.10;99.90
37594;DHT22;23441;50.856;6.076;2022-08-19T14:45:01;24.90;99.90
37594;DHT22;23441;50.856;6.076;2022-08-19T14:47:27;24.60;99.90
37594;DHT22;23441;50.856;6.076;2022-08-19T14:49:54;24.40;99.90
37594;DHT22;23441;50.856;6.076;2022-08-19T14:52:20;24.40;99.90
37594;DHT22;23441;50.856;6.076;2022-08-19T14:54:46;24.40;99.90
37594;DHT22;23441;50.856;6.076;2022-08-19T14:57:13;24.40;99.90
37594;DHT22;23441;50.856;6.076;2022-08-19T14:59:40;24.40;99.90
37594;DHT22;23441;50.856;6.076;2022-08-19T15:02:10;24.40;99.90
37594;DHT22;23441;50.856;6.076;2022-08-19T15:04:37;24.40;99.90
37594;DHT22;23441;50.856;6.076;2022-08-19T15:07:03;24.70;99.90
37594;DHT22;23441;50.856;6.076;2022-08-19T15:09:31;24.70;99.90
37594;DHT22;23441;50.856;6.076;2022-08-19T15:11:58;24.80;99.90
37594;DHT22;23441;50.856;6.076;2022-08-19T15:14:26;24.90;99.90
37594;DHT22;23441;50.856;6.076;2022-08-19T15:16:53;24.90;99.90
37594;DHT22;23441;50.856;6.076;2022-08-19T15:19:19;25.00;99.90
37594;DHT22;23441;50.856;6.076;2022-08-19T15:21:45;24.90;99.90
37594;DHT22;23441;50.856;6.076;2022-08-19T15:24:11;24.90;99.90
37594;DHT22;23441;50.856;6.076;2022-08-19T15:26:37;24.80;99.90
37594;DHT22;23441;50.856;6.076;2022-08-19T15:29:04;24.50;99.90
37594;DHT22;23441;50.856;6.076;2022-08-19T15:31:30;24.60;99.90
37594;DHT22;23441;50.856;6.076;2022-08-19T15:34:02;24.60;99.90
37594;DHT22;23441;50.856;6.076;2022-08-19T15:36:29;24.60;99.90
37594;DHT22;23441;50.856;6.076;2022-08-19T15:38:56;24.60;99.90
37594;DHT22;23441;50.856;6.076;2022-08-19T15:41:26;24.50;99.90
37594;DHT22;23441;50.856;6.076;2022-08-19T15:43:59;24.50;99.90
37594;DHT22;23441;50.856;6.076;2022-08-19T15:46:30;24.60;99.90
37594;DHT22;23441;50.856;6.076;2022-08-19T15:48:58;24.70;99.90
37594;DHT22;23441;50.856;6.076;2022-08-19T15:51:26;24.80;99.90
37594;DHT22;23441;50.856;6.076;2022-08-19T15:53:53;24.90;99.90
37594;DHT22;23441;50.856;6.076;2022-08-19T15:56:19;24.80;99.90